createdAt,value
2023-05-25T00:00:20.765Z,97530.44
2023-05-25T00:02:24.526Z,97528.72
2023-05-25T00:04:30.371Z,97530.66
2023-05-25T00:06:37.301Z,97537.63
2023-05-25T00:08:41.079Z,97529.13
2023-05-25T00:10:43.654Z,97525.72
2023-05-25T00:12:46.490Z,97536.44
2023-05-25T00:14:50.593Z,97539.22
2023-05-25T00:16:53.284Z,97533.88
2023-05-25T00:18:57.580Z,97540.06
2023-05-25T00:21:06.719Z,97532.13
2023-05-25T00:23:09.383Z,97535.59
2023-05-25T00:25:12.091Z,97531.19
2023-05-25T00:27:14.655Z,97534.66
2023-05-25T00:29:17.277Z,97530.28
2023-05-25T00:31:21.615Z,97531.34
2023-05-25T00:33:24.388Z,97528.72
2023-05-25T00:35:27.439Z,97530.44
2023-05-25T00:37:30.047Z,97536.50
2023-05-25T00:39:32.718Z,97530.47
2023-05-25T00:41:36.589Z,97529.75
2023-05-25T00:43:39.370Z,97528.97
2023-05-25T00:45:42.092Z,97522.78
2023-05-25T00:47:46.743Z,97523.00
2023-05-25T00:49:49.424Z,97525.72
2023-05-25T00:51:53.814Z,97521.38
2023-05-25T00:53:56.453Z,97519.69
2023-05-25T00:56:06.096Z,97519.88
2023-05-25T00:58:09.529Z,97524.22
2023-05-25T01:00:13.909Z,97524.22
2023-05-25T01:02:19.331Z,97526.78
2023-05-25T01:04:24.378Z,97518.03
2023-05-25T01:06:32.100Z,97518.13
2023-05-25T01:08:36.651Z,97525.13
2023-05-25T01:10:40.468Z,97527.00
2023-05-25T01:12:45.397Z,97521.88
2023-05-25T01:14:49.208Z,97525.72
2023-05-25T01:16:53.467Z,97523.19
2023-05-25T01:18:56.466Z,97515.47
2023-05-25T01:21:13.358Z,97515.81
2023-05-25T01:23:17.633Z,97515.06
2023-05-25T01:25:25.239Z,97511.66
2023-05-25T01:27:36.577Z,97510.03
2023-05-25T01:29:43.340Z,97510.25
2023-05-25T01:31:47.199Z,97512.16
2023-05-25T01:33:51.475Z,97514.00
2023-05-25T01:35:54.459Z,97517.75
2023-05-25T01:37:59.987Z,97514.44
2023-05-25T01:40:02.639Z,97516.41
2023-05-25T01:42:05.723Z,97516.56
2023-05-25T01:44:09.079Z,97516.63
2023-05-25T01:46:19.412Z,97514.91
2023-05-25T01:48:31.372Z,97513.50
2023-05-25T01:50:37.481Z,97520.75
2023-05-25T01:52:45.767Z,97512.25
2023-05-25T01:54:54.310Z,97520.28
2023-05-25T01:57:02.329Z,97517.72
2023-05-25T01:59:08.211Z,97522.09
2023-05-25T02:01:11.661Z,97522.09
2023-05-25T02:03:14.414Z,97522.09
2023-05-25T02:05:17.170Z,97512.56
2023-05-25T02:07:19.743Z,97516.03
2023-05-25T02:09:22.625Z,97509.00
2023-05-25T02:11:27.741Z,97510.78
2023-05-25T02:13:30.384Z,97508.22
2023-05-25T02:15:34.524Z,97508.28
2023-05-25T02:17:37.741Z,97504.84
2023-05-25T02:19:40.390Z,97504.00
2023-05-25T02:21:43.137Z,97503.13
2023-05-25T02:23:47.778Z,97504.00
2023-05-25T02:25:51.691Z,97496.22
2023-05-25T02:27:55.832Z,97505.97
2023-05-25T02:29:58.495Z,97508.59
2023-05-25T02:32:01.107Z,97503.53
2023-05-25T02:34:04.064Z,97502.00
2023-05-25T02:36:07.197Z,97501.13
2023-05-25T02:38:09.809Z,97502.97
2023-05-25T02:40:14.099Z,97507.34
2023-05-25T02:42:16.726Z,97502.25
2023-05-25T02:44:20.657Z,97508.41
2023-05-25T02:46:23.694Z,97502.38
2023-05-25T02:48:26.383Z,97507.69
2023-05-25T02:50:29.021Z,97506.03
2023-05-25T02:52:32.840Z,97507.06
2023-05-25T02:54:36.250Z,97513.31
2023-05-25T02:56:38.888Z,97510.84
2023-05-25T02:58:42.523Z,97510.13
2023-05-25T03:00:46.884Z,97511.31
2023-05-25T03:02:49.931Z,97504.69
2023-05-25T03:04:53.916Z,97505.94
2023-05-25T03:06:56.701Z,97505.16
2023-05-25T03:08:59.299Z,97497.44
2023-05-25T03:11:01.954Z,97511.56
2023-05-25T03:13:04.615Z,97504.69
2023-05-25T03:15:09.231Z,97506.59
2023-05-25T03:17:13.187Z,97511.81
2023-05-25T03:19:16.134Z,97513.50
2023-05-25T03:21:18.867Z,97513.44
2023-05-25T03:23:21.591Z,97512.63
2023-05-25T03:25:24.159Z,97510.25
2023-05-25T03:27:26.803Z,97514.00
2023-05-25T03:29:29.389Z,97507.09
2023-05-25T03:31:32.017Z,97518.84
2023-05-25T03:33:36.007Z,97516.53
2023-05-25T03:35:38.660Z,97515.91
2023-05-25T03:37:41.369Z,97515.22
2023-05-25T03:39:44.005Z,97517.06
2023-05-25T03:41:46.604Z,97514.38
2023-05-25T03:43:49.239Z,97506.47
2023-05-25T03:45:51.852Z,97503.78
2023-05-25T03:47:54.579Z,97497.59
2023-05-25T03:49:58.645Z,97496.50
2023-05-25T03:52:01.526Z,97502.47
2023-05-25T03:54:04.112Z,97509.22
2023-05-25T03:56:07.614Z,97514.38
2023-05-25T03:58:10.967Z,97519.88
2023-05-25T04:00:15.556Z,97520.03
2023-05-25T04:02:18.183Z,97528.84
2023-05-25T04:04:21.987Z,97525.56
2023-05-25T04:06:26.293Z,97522.16
2023-05-25T04:08:30.138Z,97525.69
2023-05-25T04:10:32.741Z,97522.16
2023-05-25T04:12:36.254Z,97522.88
2023-05-25T04:14:39.615Z,97522.72
2023-05-25T04:16:42.362Z,97519.94
2023-05-25T04:18:45.104Z,97519.75
2023-05-25T04:20:47.912Z,97520.47
2023-05-25T04:22:51.830Z,97535.13
2023-05-25T04:24:54.707Z,97531.72
2023-05-25T04:26:57.660Z,97538.56
2023-05-25T04:29:01.926Z,97535.97
2023-05-25T04:31:05.362Z,97536.81
2023-05-25T04:33:08.176Z,97536.75
2023-05-25T04:35:10.778Z,97531.53
2023-05-25T04:37:13.461Z,97531.28
2023-05-25T04:39:17.534Z,97532.19
2023-05-25T04:41:20.177Z,97533.97
2023-05-25T04:43:22.794Z,97534.88
2023-05-25T04:45:25.958Z,97535.72
2023-05-25T04:47:29.318Z,97540.88
2023-05-25T04:49:32.089Z,97526.88
2023-05-25T04:51:35.810Z,97526.84
2023-05-25T04:53:38.584Z,97539.00
2023-05-25T04:55:42.673Z,97540.66
2023-05-25T04:57:45.493Z,97537.97
2023-05-25T04:59:48.086Z,97537.03
2023-05-25T05:01:53.623Z,97541.38
2023-05-25T05:03:56.351Z,97548.16
2023-05-25T05:05:59.045Z,97544.66
2023-05-25T05:08:03.669Z,97550.72
2023-05-25T05:10:07.229Z,97553.25
2023-05-25T05:12:12.197Z,97552.31
2023-05-25T05:14:14.919Z,97550.47
2023-05-25T05:16:17.579Z,97548.75
2023-05-25T05:18:20.273Z,97553.88
2023-05-25T05:20:22.993Z,97560.81
2023-05-25T05:22:25.615Z,97568.66
2023-05-25T05:24:28.288Z,97572.00
2023-05-25T05:26:34.274Z,97575.41
2023-05-25T05:28:48.424Z,97580.50
2023-05-25T05:30:51.084Z,97575.19
2023-05-25T05:32:53.725Z,97584.63
2023-05-25T05:34:56.356Z,97583.59
2023-05-25T05:37:00.112Z,97589.66
2023-05-25T05:39:03.470Z,97591.31
2023-05-25T05:41:11.264Z,97593.16
2023-05-25T05:43:15.217Z,97592.03
2023-05-25T05:45:19.230Z,97595.31
2023-05-25T05:47:22.299Z,97600.28
2023-05-25T05:49:24.900Z,97594.78
2023-05-25T05:51:27.529Z,97595.53
2023-05-25T05:53:30.101Z,97591.81
2023-05-25T05:55:32.948Z,97603.03
2023-05-25T05:57:35.615Z,97604.69
2023-05-25T05:59:38.296Z,97613.38
2023-05-25T06:01:44.141Z,97612.31
2023-05-25T06:03:47.514Z,97615.59
2023-05-25T06:05:50.371Z,97611.13
2023-05-25T06:07:53.002Z,97615.59
2023-05-25T06:09:56.016Z,97610.25
2023-05-25T06:11:58.614Z,97604.00
2023-05-25T06:14:01.222Z,97600.41
2023-05-25T06:16:03.894Z,97610.59
2023-05-25T06:18:08.097Z,97606.09
2023-05-25T06:20:11.821Z,97599.00
2023-05-25T06:22:14.440Z,97605.09
2023-05-25T06:24:17.167Z,97601.47
2023-05-25T06:26:19.854Z,97606.56
2023-05-25T06:28:22.442Z,97604.06
2023-05-25T06:30:25.125Z,97604.72
2023-05-25T06:32:27.780Z,97608.00
2023-05-25T06:34:32.237Z,97607.78
2023-05-25T06:36:34.995Z,97608.34
2023-05-25T06:38:37.637Z,97615.16
2023-05-25T06:40:40.288Z,97610.56
2023-05-25T06:42:43.123Z,97612.06
2023-05-25T06:44:45.686Z,97614.53
2023-05-25T06:46:48.348Z,97620.41
2023-05-25T06:48:51.033Z,97622.06
2023-05-25T06:50:55.006Z,97621.91
2023-05-25T06:52:59.024Z,97626.06
2023-05-25T06:55:03.985Z,97626.66
2023-05-25T06:57:07.007Z,97635.41
2023-05-25T06:59:09.648Z,97630.81
2023-05-25T07:01:12.236Z,97638.47
2023-05-25T07:03:14.928Z,97631.25
2023-05-25T07:05:17.644Z,97629.41
2023-05-25T07:07:22.354Z,97640.53
2023-05-25T07:09:24.957Z,97635.13
2023-05-25T07:11:28.006Z,97639.31
2023-05-25T07:13:30.721Z,97636.25
2023-05-25T07:15:33.304Z,97640.28
2023-05-25T07:17:36.528Z,97634.97
2023-05-25T07:19:39.288Z,97642.66
2023-05-25T07:21:41.986Z,97639.78
2023-05-25T07:23:45.981Z,97643.28
2023-05-25T07:25:48.614Z,97646.44
2023-05-25T07:27:55.028Z,97639.13
2023-05-25T07:29:57.659Z,97642.22
2023-05-25T07:32:00.334Z,97639.81
2023-05-25T07:34:03.212Z,97641.22
2023-05-25T07:36:06.572Z,97643.56
2023-05-25T07:38:10.618Z,97647.66
2023-05-25T07:40:14.829Z,97647.50
2023-05-25T07:42:20.867Z,97656.94
2023-05-25T07:44:23.627Z,97653.34
2023-05-25T07:46:26.542Z,97660.44
2023-05-25T07:48:29.581Z,97659.50
2023-05-25T07:50:32.135Z,97660.28
2023-05-25T07:52:34.741Z,97661.22
2023-05-25T07:54:40.191Z,97658.72
2023-05-25T07:56:44.411Z,97657.97
2023-05-25T07:58:47.108Z,97657.19
2023-05-25T08:00:50.402Z,97661.34
2023-05-25T08:02:53.188Z,97659.50
2023-05-25T08:04:56.173Z,97659.34
2023-05-25T08:06:58.795Z,97663.69
2023-05-25T08:09:01.541Z,97656.56
2023-05-25T08:11:04.237Z,97662.97
2023-05-25T08:13:08.239Z,97655.63
2023-05-25T08:15:11.097Z,97667.25
2023-05-25T08:17:13.827Z,97660.03
2023-05-25T08:19:16.480Z,97657.72
2023-05-25T08:21:19.241Z,97659.34
2023-05-25T08:23:21.977Z,97651.75
2023-05-25T08:25:24.587Z,97659.09
2023-05-25T08:27:27.297Z,97662.22
2023-05-25T08:29:31.356Z,97663.63
2023-05-25T08:31:34.250Z,97667.00
2023-05-25T08:33:38.406Z,97665.00
2023-05-25T08:35:42.950Z,97667.13
2023-05-25T08:37:46.702Z,97665.03
2023-05-25T08:39:49.286Z,97671.47
2023-05-25T08:41:52.327Z,97663.41
2023-05-25T08:43:55.137Z,97663.88
2023-05-25T08:46:04.195Z,97659.63
2023-05-25T08:48:13.825Z,97668.28
2023-05-25T08:50:18.487Z,97661.16
2023-05-25T08:52:23.316Z,97659.22
2023-05-25T08:54:30.904Z,97664.13
2023-05-25T08:56:36.883Z,97664.72
2023-05-25T08:58:46.326Z,97658.56
2023-05-25T09:00:55.691Z,97661.88
2023-05-25T09:03:06.872Z,97657.63
2023-05-25T09:05:09.974Z,97666.63
2023-05-25T09:07:13.180Z,97661.69
2023-05-25T09:09:15.867Z,97667.03
2023-05-25T09:11:32.010Z,97668.41
2023-05-25T09:13:39.685Z,97660.00
2023-05-25T09:15:42.832Z,97660.75
2023-05-25T09:17:45.719Z,97667.91
2023-05-25T09:19:51.080Z,97670.09
2023-05-25T09:22:03.257Z,97669.94
2023-05-25T09:24:17.494Z,97675.03
2023-05-25T09:26:20.760Z,97676.53
2023-05-25T09:28:27.311Z,97671.22
2023-05-25T09:30:32.863Z,97672.81
2023-05-25T09:32:36.374Z,97675.44
2023-05-25T09:34:39.067Z,97677.06
2023-05-25T09:36:43.422Z,97686.47
2023-05-25T09:38:46.873Z,97676.91
2023-05-25T09:40:49.744Z,97685.56
2023-05-25T09:42:52.465Z,97678.25
2023-05-25T09:44:55.087Z,97677.66
2023-05-25T09:46:57.719Z,97683.34
2023-05-25T09:49:01.209Z,97678.91
2023-05-25T09:51:03.946Z,97672.44
2023-05-25T09:53:08.401Z,97664.78
2023-05-25T09:55:12.552Z,97662.75
2023-05-25T09:57:16.130Z,97673.63
2023-05-25T09:59:18.814Z,97669.53
2023-05-25T10:01:21.506Z,97672.47
2023-05-25T10:03:24.287Z,97663.75
2023-05-25T10:05:26.865Z,97665.16
2023-05-25T10:07:30.165Z,97664.09
2023-05-25T10:09:38.760Z,97663.91
2023-05-25T10:11:44.466Z,97665.44
2023-05-25T10:13:48.125Z,97669.69
2023-05-25T10:15:54.375Z,97670.84
2023-05-25T10:17:59.327Z,97666.81
2023-05-25T10:20:02.742Z,97669.63
2023-05-25T10:22:14.739Z,97664.56
2023-05-25T10:24:27.820Z,97667.69
2023-05-25T10:26:36.526Z,97672.22
2023-05-25T10:28:41.088Z,97673.22
2023-05-25T10:30:44.262Z,97674.56
2023-05-25T10:32:48.919Z,97675.78
2023-05-25T10:34:53.267Z,97669.72
2023-05-25T10:36:57.402Z,97678.25
2023-05-25T10:39:02.034Z,97673.44
2023-05-25T10:41:05.676Z,97682.59
2023-05-25T10:43:09.653Z,97675.22
2023-05-25T10:45:13.015Z,97683.34
2023-05-25T10:47:17.152Z,97678.44
2023-05-25T10:49:28.357Z,97674.09
2023-05-25T10:51:38.633Z,97679.63
2023-05-25T10:53:45.832Z,97680.00
2023-05-25T10:56:01.547Z,97675.09
2023-05-25T10:58:13.186Z,97672.16
2023-05-25T11:00:16.846Z,97676.41
2023-05-25T11:02:23.363Z,97672.53
2023-05-25T11:04:26.320Z,97675.78
2023-05-25T11:07:08.292Z,97679.19
2023-05-25T11:09:25.197Z,97676.59
2023-05-25T11:12:03.513Z,97676.81
2023-05-25T11:14:22.112Z,97678.97
2023-05-25T11:16:36.314Z,97668.28
2023-05-25T11:18:39.320Z,97680.38
2023-05-25T11:20:42.160Z,97676.50
2023-05-25T11:22:44.825Z,97674.53
2023-05-25T11:24:48.176Z,97670.91
2023-05-25T11:26:55.991Z,97671.13
2023-05-25T11:28:59.872Z,97676.66
2023-05-25T11:31:07.822Z,97667.25
2023-05-25T11:33:11.040Z,97666.66
2023-05-25T11:35:14.705Z,97665.84
2023-05-25T11:37:21.090Z,97665.72
2023-05-25T11:39:24.102Z,97672.03
2023-05-25T11:41:26.849Z,97672.78
2023-05-25T11:43:29.756Z,97671.28
2023-05-25T11:45:34.439Z,97671.94
2023-05-25T11:47:38.502Z,97664.88
2023-05-25T11:49:44.179Z,97665.41
2023-05-25T11:51:46.844Z,97661.09
2023-05-25T11:53:49.759Z,97672.41
2023-05-25T11:56:00.563Z,97668.91
2023-05-25T11:58:10.444Z,97673.03
2023-05-25T12:00:14.357Z,97668.81
2023-05-25T12:02:17.174Z,97666.28
2023-05-25T12:04:23.857Z,97662.56
2023-05-25T12:06:28.535Z,97665.47
2023-05-25T12:08:34.360Z,97661.84
2023-05-25T12:10:50.637Z,97669.47
2023-05-25T12:12:58.122Z,97669.38
2023-05-25T12:15:00.839Z,97667.38
2023-05-25T12:17:03.613Z,97670.22
2023-05-25T12:19:07.538Z,97671.91
2023-05-25T12:21:12.267Z,97675.06
2023-05-25T12:23:15.094Z,97674.03
2023-05-25T12:25:21.216Z,97677.50
2023-05-25T12:27:24.023Z,97673.81
2023-05-25T12:29:26.784Z,97660.66
2023-05-25T12:31:31.496Z,97663.91
2023-05-25T12:33:34.227Z,97666.63
2023-05-25T12:35:46.797Z,97668.63
2023-05-25T12:37:50.836Z,97667.69
2023-05-25T12:39:53.461Z,97666.97
2023-05-25T12:41:57.281Z,97666.66
2023-05-25T12:44:00.644Z,97667.22
2023-05-25T12:46:03.666Z,97664.44
2023-05-25T12:48:06.544Z,97665.66
2023-05-25T12:50:13.741Z,97676.28
2023-05-25T12:52:35.214Z,97668.50
2023-05-25T12:54:48.415Z,97666.94
2023-05-25T12:56:57.263Z,97681.47
2023-05-25T12:59:17.759Z,97670.44
2023-05-25T13:01:20.375Z,97672.66
2023-05-25T13:03:23.033Z,97670.31
2023-05-25T13:05:26.828Z,97670.72
2023-05-25T13:07:30.138Z,97664.91
2023-05-25T13:09:33.696Z,97661.81
2023-05-25T13:11:37.727Z,97668.22
2023-05-25T13:13:40.640Z,97666.50
2023-05-25T13:15:45.349Z,97665.38
2023-05-25T13:17:48.543Z,97662.22
2023-05-25T13:19:51.223Z,97667.31
2023-05-25T13:21:55.946Z,97667.97
2023-05-25T13:23:58.575Z,97666.19
2023-05-25T13:26:01.165Z,97670.75
2023-05-25T13:28:06.383Z,97660.16
2023-05-25T13:30:11.773Z,97659.28
2023-05-25T13:32:14.844Z,97667.63
2023-05-25T13:34:17.671Z,97664.56
2023-05-25T13:36:20.457Z,97657.88
2023-05-25T13:38:23.070Z,97651.13
2023-05-25T13:40:25.715Z,97660.94
2023-05-25T13:42:28.300Z,97658.91
2023-05-25T13:44:33.948Z,97653.19
2023-05-25T13:46:37.773Z,97647.75
2023-05-25T13:48:40.727Z,97656.44
2023-05-25T13:50:45.064Z,97650.44
2023-05-25T13:52:49.097Z,97654.28
2023-05-25T13:54:51.794Z,97647.34
2023-05-25T13:56:54.401Z,97648.91
2023-05-25T13:58:57.081Z,97648.56
2023-05-25T14:01:01.132Z,97649.41
2023-05-25T14:03:03.917Z,97649.63
2023-05-25T14:05:07.400Z,97643.97
2023-05-25T14:07:10.007Z,97646.50
2023-05-25T14:09:13.573Z,97648.31
2023-05-25T14:11:18.361Z,97649.06
2023-05-25T14:13:22.714Z,97647.16
2023-05-25T14:15:25.845Z,97649.91
2023-05-25T14:17:29.814Z,97642.78
2023-05-25T14:19:33.066Z,97643.72
2023-05-25T14:21:35.787Z,97648.28
2023-05-25T14:23:38.362Z,97647.66
2023-05-25T14:25:44.232Z,97646.34
2023-05-25T14:27:47.011Z,97646.03
2023-05-25T14:29:49.901Z,97642.69
2023-05-25T14:31:52.809Z,97641.00
2023-05-25T14:33:56.951Z,97641.06
2023-05-25T14:35:59.531Z,97648.41
2023-05-25T14:38:02.164Z,97645.34
2023-05-25T14:40:05.497Z,97649.59
2023-05-25T14:42:08.604Z,97645.19
2023-05-25T14:44:11.256Z,97644.63
2023-05-25T14:46:14.160Z,97648.97
2023-05-25T14:48:18.008Z,97644.50
2023-05-25T14:50:22.014Z,97636.91
2023-05-25T14:52:24.656Z,97643.88
2023-05-25T14:54:27.685Z,97643.78
2023-05-25T14:56:30.640Z,97643.56
2023-05-25T14:58:34.169Z,97642.03
2023-05-25T15:00:36.840Z,97631.00
2023-05-25T15:02:39.487Z,97644.00
2023-05-25T15:04:42.243Z,97641.66
2023-05-25T15:06:46.201Z,97644.28
2023-05-25T15:08:48.828Z,97640.63
2023-05-25T15:10:52.666Z,97637.53
2023-05-25T15:12:55.285Z,97643.91
2023-05-25T15:14:57.843Z,97645.13
2023-05-25T15:17:00.597Z,97635.75
2023-05-25T15:19:03.237Z,97637.22
2023-05-25T15:21:06.213Z,97639.63
2023-05-25T15:23:10.151Z,97640.84
2023-05-25T15:25:16.860Z,97638.97
2023-05-25T15:27:22.091Z,97637.78
2023-05-25T15:29:24.753Z,97634.16
2023-05-25T15:31:27.379Z,97629.00
2023-05-25T15:33:39.900Z,97628.84
2023-05-25T15:35:51.002Z,97625.91
2023-05-25T15:37:53.643Z,97625.56
2023-05-25T15:39:57.606Z,97629.41
2023-05-25T15:42:00.193Z,97631.94
2023-05-25T15:44:02.998Z,97625.75
2023-05-25T15:46:05.661Z,97623.75
2023-05-25T15:48:10.171Z,97629.81
2023-05-25T15:50:12.959Z,97637.31
2023-05-25T15:52:16.337Z,97634.91
2023-05-25T15:54:18.950Z,97635.63
2023-05-25T15:56:23.048Z,97635.50
2023-05-25T15:58:25.618Z,97634.13
2023-05-25T16:00:30.546Z,97637.66
2023-05-25T16:02:33.435Z,97630.47
2023-05-25T16:04:36.060Z,97631.44
2023-05-25T16:06:39.062Z,97631.09
2023-05-25T16:08:41.684Z,97635.09
2023-05-25T16:10:44.531Z,97636.25
2023-05-25T16:12:48.548Z,97641.75
2023-05-25T16:14:51.147Z,97631.63
2023-05-25T16:16:53.843Z,97628.94
2023-05-25T16:18:56.608Z,97629.66
2023-05-25T16:20:59.278Z,97629.28
2023-05-25T16:23:02.592Z,97628.03
2023-05-25T16:25:05.768Z,97633.53
2023-05-25T16:27:08.401Z,97626.31
2023-05-25T16:29:12.400Z,97635.00
2023-05-25T16:31:15.647Z,97631.81
2023-05-25T16:33:18.312Z,97632.00
2023-05-25T16:35:21.077Z,97633.59
2023-05-25T16:37:23.688Z,97640.94
2023-05-25T16:39:26.269Z,97639.56
2023-05-25T16:41:28.866Z,97641.88
2023-05-25T16:43:31.483Z,97635.28
2023-05-25T16:45:35.544Z,97632.91
2023-05-25T16:47:38.201Z,97639.28
2023-05-25T16:49:40.974Z,97625.63
2023-05-25T16:51:43.545Z,97634.13
2023-05-25T16:53:46.148Z,97628.38
2023-05-25T16:55:48.783Z,97623.50
2023-05-25T16:57:51.371Z,97623.81
2023-05-25T16:59:54.260Z,97621.31
2023-05-25T17:01:59.190Z,97622.03
2023-05-25T17:04:01.991Z,97616.13
2023-05-25T17:06:04.851Z,97617.41
2023-05-25T17:08:07.457Z,97618.72
2023-05-25T17:10:10.462Z,97617.19
2023-05-25T17:12:13.137Z,97622.09
2023-05-25T17:14:15.831Z,97627.63
2023-05-25T17:16:18.503Z,97618.22
2023-05-25T17:18:22.654Z,97622.16
2023-05-25T17:20:25.339Z,97615.41
2023-05-25T17:22:28.061Z,97621.91
2023-05-25T17:24:31.106Z,97622.84
2023-05-25T17:26:36.090Z,97622.59
2023-05-25T17:28:38.724Z,97622.16
2023-05-25T17:30:41.357Z,97627.19
2023-05-25T17:32:43.990Z,97624.66
2023-05-25T17:34:48.014Z,97622.81
2023-05-25T17:36:50.625Z,97623.81
2023-05-25T17:38:53.276Z,97628.59
2023-05-25T17:40:55.902Z,97630.13
2023-05-25T17:42:58.464Z,97629.53
2023-05-25T17:45:01.219Z,97639.91
2023-05-25T17:47:03.918Z,97630.63
2023-05-25T17:49:06.528Z,97637.22
2023-05-25T17:51:13.041Z,97640.53
2023-05-25T17:53:16.054Z,97643.59
2023-05-25T17:55:20.442Z,97652.00
2023-05-25T17:57:23.066Z,97646.59
2023-05-25T17:59:25.690Z,97647.28
2023-05-25T18:01:28.418Z,97653.84
2023-05-25T18:03:31.158Z,97650.75
2023-05-25T18:05:33.808Z,97646.22
2023-05-25T18:07:37.760Z,97651.34
2023-05-25T18:09:40.350Z,97656.50
2023-05-25T18:11:42.934Z,97654.84
2023-05-25T18:13:45.674Z,97651.16
2023-05-25T18:15:48.265Z,97664.09
2023-05-25T18:17:50.910Z,97654.38
2023-05-25T18:19:53.640Z,97659.47
2023-05-25T18:21:56.317Z,97653.97
2023-05-25T18:24:00.415Z,97660.03
2023-05-25T18:26:04.596Z,97662.50
2023-05-25T18:28:07.241Z,97663.97
2023-05-25T18:30:10.817Z,97663.72
2023-05-25T18:32:13.456Z,97667.13
2023-05-25T18:34:16.185Z,97664.81
2023-05-25T18:36:18.797Z,97660.28
2023-05-25T18:38:21.467Z,97664.13
2023-05-25T18:40:25.655Z,97665.59
2023-05-25T18:42:28.280Z,97666.91
2023-05-25T18:44:30.951Z,97662.97
2023-05-25T18:46:33.590Z,97670.41
2023-05-25T18:48:36.524Z,97671.91
2023-05-25T18:50:40.149Z,97668.84
2023-05-25T18:52:42.808Z,97667.75
2023-05-25T18:54:46.192Z,97672.81
2023-05-25T18:56:50.176Z,97667.25
2023-05-25T18:58:54.708Z,97669.75
2023-05-25T19:00:57.305Z,97672.16
2023-05-25T19:02:59.973Z,97674.31
2023-05-25T19:05:02.713Z,97678.75
2023-05-25T19:07:05.624Z,97682.00
2023-05-25T19:09:08.617Z,97683.75
2023-05-25T19:11:11.236Z,97683.47
2023-05-25T19:13:15.369Z,97690.19
2023-05-25T19:15:18.051Z,97688.91
2023-05-25T19:17:21.008Z,97693.72
2023-05-25T19:19:23.712Z,97694.91
2023-05-25T19:21:26.752Z,97695.34
2023-05-25T19:23:29.402Z,97701.09
2023-05-25T19:25:32.088Z,97705.03
2023-05-25T19:27:34.775Z,97701.03
2023-05-25T19:29:38.739Z,97704.13
2023-05-25T19:31:41.382Z,97708.19
2023-05-25T19:33:44.046Z,97709.78
2023-05-25T19:35:46.778Z,97712.13
2023-05-25T19:37:49.521Z,97710.66
2023-05-25T19:39:52.115Z,97710.97
2023-05-25T19:41:54.749Z,97707.16
2023-05-25T19:43:57.349Z,97708.50
2023-05-25T19:46:01.375Z,97709.38
2023-05-25T19:48:04.132Z,97709.16
2023-05-25T19:50:08.418Z,97712.22
2023-05-25T19:52:11.106Z,97712.94
2023-05-25T19:54:13.771Z,97713.38
2023-05-25T19:56:16.373Z,97720.56
2023-05-25T19:58:19.005Z,97723.63
2023-05-25T20:00:26.708Z,97717.06
2023-05-25T20:02:31.400Z,97724.25
2023-05-25T20:04:34.179Z,97722.75
2023-05-25T20:06:37.470Z,97736.78
2023-05-25T20:08:40.090Z,97734.34
2023-05-25T20:10:44.607Z,97740.94
2023-05-25T20:12:47.194Z,97739.75
2023-05-25T20:14:49.919Z,97739.41
2023-05-25T20:16:54.320Z,97738.97
2023-05-25T20:18:58.287Z,97741.88
2023-05-25T20:21:00.864Z,97741.13
2023-05-25T20:23:03.850Z,97747.47
2023-05-25T20:25:07.199Z,97743.13
2023-05-25T20:27:09.884Z,97747.19
2023-05-25T20:29:12.496Z,97747.38
2023-05-25T20:31:15.107Z,97748.63
2023-05-25T20:33:17.893Z,97759.38
2023-05-25T20:35:21.850Z,97749.94
2023-05-25T20:37:24.575Z,97752.59
2023-05-25T20:39:27.275Z,97759.78
2023-05-25T20:41:31.742Z,97750.34
2023-05-25T20:43:34.348Z,97756.09
2023-05-25T20:45:38.487Z,97760.16
2023-05-25T20:47:41.653Z,97763.19
2023-05-25T20:49:44.248Z,97764.41
2023-05-25T20:51:50.036Z,97756.53
2023-05-25T20:53:52.737Z,97757.66
2023-05-25T20:55:55.409Z,97756.25
2023-05-25T20:57:59.676Z,97756.44
2023-05-25T21:00:02.326Z,97755.09
2023-05-25T21:02:05.698Z,97763.31
2023-05-25T21:04:08.495Z,97759.16
2023-05-25T21:06:11.174Z,97763.66
2023-05-25T21:08:15.167Z,97757.66
2023-05-25T21:10:17.881Z,97761.50
2023-05-25T21:12:20.468Z,97759.13
2023-05-25T21:14:23.098Z,97762.13
2023-05-25T21:16:26.184Z,97757.38
2023-05-25T21:18:28.805Z,97768.94
2023-05-25T21:20:31.462Z,97768.94
2023-05-25T21:22:34.111Z,97766.41
2023-05-25T21:24:38.059Z,97763.25
2023-05-25T21:26:41.005Z,97771.31
2023-05-25T21:28:43.644Z,97771.41
2023-05-25T21:30:46.254Z,97774.38
2023-05-25T21:32:48.939Z,97770.72
2023-05-25T21:34:52.729Z,97769.53
2023-05-25T21:36:55.323Z,97769.22
2023-05-25T21:38:57.943Z,97761.72
2023-05-25T21:41:01.884Z,97760.94
2023-05-25T21:43:04.956Z,97769.72
2023-05-25T21:45:08.429Z,97766.03
2023-05-25T21:47:11.148Z,97774.19
2023-05-25T21:49:13.858Z,97772.31
2023-05-25T21:51:16.467Z,97785.38
2023-05-25T21:53:19.309Z,97779.34
2023-05-25T21:55:22.048Z,97775.63
2023-05-25T21:57:25.993Z,97772.81
2023-05-25T21:59:28.634Z,97782.66
2023-05-25T22:01:31.295Z,97775.56
2023-05-25T22:03:33.984Z,97781.59
2023-05-25T22:05:36.682Z,97780.03
2023-05-25T22:07:39.271Z,97779.19
2023-05-25T22:09:41.889Z,97778.28
2023-05-25T22:11:44.555Z,97779.13
2023-05-25T22:13:48.463Z,97781.66
2023-05-25T22:15:51.189Z,97779.88
2023-05-25T22:17:53.848Z,97783.19
2023-05-25T22:20:07.345Z,97778.69
2023-05-25T22:22:11.009Z,97776.91
2023-05-25T22:24:13.610Z,97774.28
2023-05-25T22:26:16.253Z,97772.50
2023-05-25T22:28:18.867Z,97779.88
2023-05-25T22:30:22.828Z,97775.63
2023-05-25T22:32:26.867Z,97775.72
2023-05-25T22:34:32.108Z,97780.97
2023-05-25T22:36:34.737Z,97779.19
2023-05-25T22:38:37.537Z,97782.66
2023-05-25T22:40:40.160Z,97786.34
2023-05-25T22:42:45.037Z,97781.13
2023-05-25T22:44:49.217Z,97782.16
2023-05-25T22:46:53.203Z,97788.41
2023-05-25T22:48:55.838Z,97783.25
2023-05-25T22:50:58.415Z,97780.78
2023-05-25T22:53:01.075Z,97783.59
2023-05-25T22:55:03.836Z,97790.69
2023-05-25T22:57:07.035Z,97785.69
2023-05-25T22:59:09.602Z,97785.84
2023-05-25T23:01:12.203Z,97784.16
2023-05-25T23:03:16.381Z,97777.09
2023-05-25T23:05:19.042Z,97784.84
2023-05-25T23:07:21.842Z,97778.63
2023-05-25T23:09:24.477Z,97785.75
2023-05-25T23:11:27.219Z,97779.97
2023-05-25T23:13:29.895Z,97781.13
2023-05-25T23:15:32.534Z,97784.78
2023-05-25T23:17:35.483Z,97783.16
2023-05-25T23:19:40.323Z,97784.94
2023-05-25T23:21:42.950Z,97784.88
2023-05-25T23:23:45.540Z,97784.78
2023-05-25T23:25:48.311Z,97781.91
2023-05-25T23:27:50.928Z,97778.19
2023-05-25T23:29:56.121Z,97786.84
2023-05-25T23:31:58.716Z,97780.66
2023-05-25T23:34:01.400Z,97787.69
2023-05-25T23:36:05.711Z,97793.13
2023-05-25T23:38:08.316Z,97786.47
2023-05-25T23:40:12.046Z,97791.13
2023-05-25T23:42:15.479Z,97794.22
2023-05-25T23:44:18.151Z,97796.38
2023-05-25T23:46:20.851Z,97787.94
2023-05-25T23:48:23.480Z,97798.75
2023-05-25T23:50:26.131Z,97797.94
2023-05-25T23:52:30.108Z,97797.94
2023-05-25T23:54:32.732Z,97803.88
2023-05-25T23:56:35.521Z,97799.41
2023-05-25T23:58:38.093Z,97806.28
